Time;durP1;ratioP1;P1;durP2;ratioP2;P2;SDS_P1;SDS_P2;PMS_P1;PMS_P2;Temp;Humidity;BMP_temperature;BMP_pressure;BME280_temperature;BME280_humidity;BME280_pressure;Samples;Min_cycle;Max_cycle;Signal;HPM_P1;HPM_P2
2023/04/01 00:00:46;;;;;;;;;;;;;;;11.94;63.79;98849.75;5093387;28;19953;-42
2023/04/01 00:03:11;;;;;;;;;;;;;;;11.91;63.47;98852.88;5093152;28;20310;-41
2023/04/01 00:05:37;;;;;;;;;;;;;;;12.02;63.69;98837.91;5093061;28;19951;-41
2023/04/01 00:08:02;;;;;;;;;;;;;;;11.84;63.77;98830.81;5092598;28;19999;-41
2023/04/01 00:10:28;;;;;;;;;;;;;;;11.87;63.61;98820.50;5093196;28;19919;-41
2023/04/01 00:12:53;;;;;;;;;;;;;;;11.99;63.30;98833.84;5093097;28;19916;-42
2023/04/01 00:15:18;;;;;;;;;;;;;;;11.92;63.62;98833.19;5093052;28;20395;-42
2023/04/01 00:17:44;;;;;;;;;;;;;;;11.82;64.11;98838.25;5092999;28;19912;-42
2023/04/01 00:20:10;;;;;;;;;;;;;;;11.77;64.09;98841.63;5093108;28;20356;-42
2023/04/01 00:22:36;;;;;;;;;;;;;;;11.64;65.01;98841.84;5092523;28;19919;-42
2023/04/01 00:25:01;;;;;;;;;;;;;;;11.70;64.07;98836.38;5093162;28;19939;-42
2023/04/01 00:27:27;;;;;;;;;;;;;;;11.83;64.11;98840.66;5093055;28;19912;-42
2023/04/01 00:29:52;;;;;;;;;;;;;;;11.90;63.43;98849.41;5092800;28;20299;-42
2023/04/01 00:32:17;;;;;;;;;;;;;;;11.92;63.75;98847.31;5092785;28;19912;-42
2023/04/01 00:34:44;;;;;;;;;;;;;;;11.88;63.63;98846.13;5092743;28;19912;-42
2023/04/01 00:37:09;;;;;;;;;;;;;;;11.84;63.43;98846.81;5092854;28;19916;-42
2023/04/01 00:39:34;;;;;;;;;;;;;;;11.50;65.39;98842.09;5092697;28;19919;-43
2023/04/01 00:42:01;;;;;;;;;;;;;;;11.58;64.70;98848.91;5092724;28;20321;-42
2023/04/01 00:44:27;;;;;;;;;;;;;;;11.34;65.71;98850.75;5092356;28;19912;-42
2023/04/01 00:46:53;;;;;;;;;;;;;;;11.50;65.25;98843.94;5092555;28;19966;-43
2023/04/01 00:49:20;;;;;;;;;;;;;;;11.32;66.99;98842.97;5092230;28;19916;-42
2023/04/01 00:51:47;;;;;;;;;;;;;;;11.64;65.01;98842.66;5092335;28;19920;-42
2023/04/01 00:54:14;;;;;;;;;;;;;;;11.77;64.84;98841.63;5092137;28;19920;-42
2023/04/01 00:56:49;;;;;;;;;;;;;;;11.75;64.41;98849.03;5092551;28;19912;-42
2023/04/01 00:59:18;;;;;;;;;;;;;;;11.81;64.60;98841.97;5092303;28;20421;-42
2023/04/01 01:01:44;;;;;;;;;;;;;;;11.70;64.62;98840.91;5092052;28;19912;-42
2023/04/01 01:04:21;;;;;;;;;;;;;;;11.76;64.48;98831.19;5092408;28;19919;-40
2023/04/01 01:06:53;;;;;;;;;;;;;;;11.72;64.33;98830.84;5091779;28;19912;-42
2023/04/01 01:09:18;;;;;;;;;;;;;;;11.93;64.33;98827.59;5092107;28;19916;-42
2023/04/01 01:12:06;;;;;;;;;;;;;;;11.99;64.04;98831.16;5092050;28;19935;-42
2023/04/01 01:14:55;;;;;;;;;;;;;;;12.11;63.86;98829.31;5088869;28;20116;-42
2023/04/01 01:17:26;;;;;;;;;;;;;;;11.70;64.80;98832.91;5088636;28;19919;-42
2023/04/01 01:19:52;;;;;;;;;;;;;;;11.54;65.91;98831.78;5091051;28;20476;-42
2023/04/01 01:22:35;;;;;;;;;;;;;;;11.64;65.52;98829.34;5091942;28;19920;-42
2023/04/01 01:25:01;;;;;;;;;;;;;;;11.73;64.99;98829.81;5091963;28;19995;-42
2023/04/01 01:27:26;;;;;;;;;;;;;;;11.78;65.00;98831.75;5091887;28;19958;-42
2023/04/01 01:29:52;;;;;;;;;;;;;;;11.67;65.59;98838.72;5091744;28;19920;-42
2023/04/01 01:32:38;;;;;;;;;;;;;;;11.78;64.80;98837.09;5091649;28;19961;-42
2023/04/01 01:35:15;;;;;;;;;;;;;;;11.89;65.64;98833.59;5091253;28;19916;-42
2023/04/01 01:37:42;;;;;;;;;;;;;;;11.95;64.62;98830.03;5091420;28;20396;-42
2023/04/01 01:40:11;;;;;;;;;;;;;;;11.96;64.50;98826.31;5091324;28;20407;-42
2023/04/01 01:42:38;;;;;;;;;;;;;;;12.03;63.96;98811.00;5091691;28;19919;-41
2023/04/01 01:45:04;;;;;;;;;;;;;;;11.64;65.20;98818.66;5091309;28;19912;-42
2023/04/01 01:47:30;;;;;;;;;;;;;;;11.92;64.91;98812.66;5091094;28;20496;-41
2023/04/01 01:49:56;;;;;;;;;;;;;;;12.08;63.52;98805.75;5091172;28;20049;-42
2023/04/01 01:52:22;;;;;;;;;;;;;;;12.11;64.06;98804.50;5091104;28;20018;-41
2023/04/01 01:54:54;;;;;;;;;;;;;;;12.04;63.70;98798.47;5091738;28;19912;-42
2023/04/01 01:57:23;;;;;;;;;;;;;;;11.77;64.29;98800.81;5091577;28;19919;-42
2023/04/01 01:59:50;;;;;;;;;;;;;;;11.84;64.65;98782.84;5092143;28;19912;-41
2023/04/01 02:02:17;;;;;;;;;;;;;;;11.82;64.29;98783.09;5091585;28;20359;-41
2023/04/01 02:04:43;;;;;;;;;;;;;;;11.85;64.35;98789.78;5091780;28;19931;-41
2023/04/01 02:07:11;;;;;;;;;;;;;;;11.49;65.91;98789.81;5091312;28;19935;-41
2023/04/01 02:09:37;;;;;;;;;;;;;;;11.46;65.87;98786.81;5091507;28;20252;-41
2023/04/01 02:12:05;;;;;;;;;;;;;;;11.46;65.91;98781.47;5091706;28;19923;-41
2023/04/01 02:14:43;;;;;;;;;;;;;;;11.29;66.64;98776.88;5091694;28;19916;-42
2023/04/01 02:17:19;;;;;;;;;;;;;;;11.29;66.66;98776.88;5091580;28;19943;-41
2023/04/01 02:19:49;;;;;;;;;;;;;;;11.40;65.81;98790.41;5091466;28;20414;-41
2023/04/01 02:22:17;;;;;;;;;;;;;;;11.21;67.08;98789.72;5091302;28;19935;-41
2023/04/01 02:24:43;;;;;;;;;;;;;;;11.19;67.59;98797.91;5091135;28;19932;-42
2023/04/01 02:27:11;;;;;;;;;;;;;;;11.25;67.19;98813.00;5091340;28;19918;-42
2023/04/01 02:29:37;;;;;;;;;;;;;;;11.13;67.58;98810.31;5091167;28;19923;-41
2023/04/01 02:32:04;;;;;;;;;;;;;;;11.50;66.31;98804.78;5097232;28;19916;-42
2023/04/01 02:34:29;;;;;;;;;;;;;;;11.45;65.38;98795.88;5098044;28;20457;-42
2023/04/01 02:36:55;;;;;;;;;;;;;;;11.55;65.42;98788.88;5098103;28;19912;-41
2023/04/01 02:39:20;;;;;;;;;;;;;;;11.48;64.89;98768.75;5097951;28;19912;-42
2023/04/01 02:41:46;;;;;;;;;;;;;;;11.32;66.17;98765.75;5097967;28;19976;-42
2023/04/01 02:44:12;;;;;;;;;;;;;;;11.30;66.31;98767.81;5097800;28;19999;-41
2023/04/01 02:46:38;;;;;;;;;;;;;;;11.14;66.34;98771.19;5097919;28;19912;-41
2023/04/01 02:49:03;;;;;;;;;;;;;;;11.15;67.03;98775.47;5097993;28;19927;-41
2023/04/01 02:51:29;;;;;;;;;;;;;;;11.16;67.32;98777.09;5097889;28;19912;-41
2023/04/01 02:53:54;;;;;;;;;;;;;;;10.99;67.50;98797.47;5098198;28;20356;-41
2023/04/01 02:56:20;;;;;;;;;;;;;;;10.98;67.41;98771.88;5097771;28;20360;-41
2023/04/01 02:58:45;;;;;;;;;;;;;;;10.86;68.25;98780.63;5097952;28;19919;-41
2023/04/01 03:01:10;;;;;;;;;;;;;;;10.67;67.98;98776.44;5097689;28;19912;-41
2023/04/01 03:03:36;;;;;;;;;;;;;;;10.45;69.09;98776.13;5097762;28;19955;-41
2023/04/01 03:06:05;;;;;;;;;;;;;;;10.06;69.69;98784.38;5098066;28;19912;-41
2023/04/01 03:08:31;;;;;;;;;;;;;;;10.05;70.39;98781.94;5097544;28;20456;-41
2023/04/01 03:10:56;;;;;;;;;;;;;;;9.84;70.37;98775.22;5097912;28;19912;-41
2023/04/01 03:13:21;;;;;;;;;;;;;;;9.75;71.37;98782.69;5097651;28;20003;-41
2023/04/01 03:15:46;;;;;;;;;;;;;;;9.53;70.62;98780.44;5097624;28;19969;-41
2023/04/01 03:18:12;;;;;;;;;;;;;;;9.39;70.33;98778.97;5097739;28;19916;-41
2023/04/01 03:20:37;;;;;;;;;;;;;;;9.58;69.91;98787.78;5097767;28;19977;-41
2023/04/01 03:23:02;;;;;;;;;;;;;;;9.63;69.41;98787.91;5097399;28;19931;-41
2023/04/01 03:25:30;;;;;;;;;;;;;;;9.49;69.42;98779.28;5097717;28;19974;-41
2023/04/01 03:27:55;;;;;;;;;;;;;;;9.29;70.75;98773.34;5097407;28;20003;-41
2023/04/01 03:30:21;;;;;;;;;;;;;;;9.34;70.18;98768.19;5097300;28;20027;-41
2023/04/01 03:32:46;;;;;;;;;;;;;;;9.09;70.04;98760.25;5097503;28;19919;-41
2023/04/01 03:35:11;;;;;;;;;;;;;;;9.63;70.06;98769.31;5097325;28;20010;-42
2023/04/01 03:37:37;;;;;;;;;;;;;;;10.01;67.71;98768.28;5097204;28;19920;-40
2023/04/01 03:40:02;;;;;;;;;;;;;;;9.17;69.33;98762.63;5097395;28;20071;-41
2023/04/01 03:42:27;;;;;;;;;;;;;;;9.34;69.80;98747.75;5095266;28;19912;-41
2023/04/01 03:44:53;;;;;;;;;;;;;;;9.24;70.77;98739.50;5094417;28;19912;-40
2023/04/01 03:47:18;;;;;;;;;;;;;;;9.76;69.48;98744.44;5094016;28;20253;-40
2023/04/01 03:49:43;;;;;;;;;;;;;;;9.10;70.61;98756.56;5094381;28;19916;-40
2023/04/01 03:52:10;;;;;;;;;;;;;;;9.32;70.36;98755.13;5094060;28;19912;-40
2023/04/01 03:54:35;;;;;;;;;;;;;;;8.85;72.73;98753.91;5093557;28;19923;-41
2023/04/01 03:57:01;;;;;;;;;;;;;;;9.01;72.80;98756.03;5093671;28;19912;-41
2023/04/01 03:59:26;;;;;;;;;;;;;;;9.33;71.39;98751.47;5093654;28;19912;-40
2023/04/01 04:01:51;;;;;;;;;;;;;;;9.45;71.34;98740.91;5094161;28;19916;-40
2023/04/01 04:04:17;;;;;;;;;;;;;;;9.33;70.96;98732.06;5093866;28;20019;-41
2023/04/01 04:06:42;;;;;;;;;;;;;;;9.19;71.50;98731.38;5093893;28;19938;-40
2023/04/01 04:09:08;;;;;;;;;;;;;;;9.08;72.04;98735.56;5093316;28;19917;-40
2023/04/01 04:11:33;;;;;;;;;;;;;;;9.03;73.22;98739.91;5093286;28;19968;-41
2023/04/01 04:13:59;;;;;;;;;;;;;;;9.15;72.74;98741.59;5093468;28;20003;-41
2023/04/01 04:16:24;;;;;;;;;;;;;;;9.17;72.84;98736.88;5093587;28;19919;-41
2023/04/01 04:18:50;;;;;;;;;;;;;;;8.98;73.66;98740.53;5093486;28;20056;-41
2023/04/01 04:21:16;;;;;;;;;;;;;;;9.46;72.33;98737.25;5093092;28;19912;-40
2023/04/01 04:23:41;;;;;;;;;;;;;;;9.29;73.16;98737.00;5093177;28;19926;-40
2023/04/01 04:26:08;;;;;;;;;;;;;;;9.63;72.24;98749.91;5093368;28;19916;-42
2023/04/01 04:28:34;;;;;;;;;;;;;;;9.70;71.75;98756.78;5093017;28;19962;-41
2023/04/01 04:30:59;;;;;;;;;;;;;;;9.87;71.80;98748.22;5092341;28;19943;-41
2023/04/01 04:33:25;;;;;;;;;;;;;;;9.68;72.29;98750.88;5092641;28;20295;-41
2023/04/01 04:35:50;;;;;;;;;;;;;;;9.63;71.92;98750.72;5092709;28;19912;-41
2023/04/01 04:38:16;;;;;;;;;;;;;;;9.74;71.98;98744.66;5093071;28;19916;-41
2023/04/01 04:40:42;;;;;;;;;;;;;;;9.98;72.48;98737.66;5093203;28;19912;-41
2023/04/01 04:43:09;;;;;;;;;;;;;;;10.73;68.73;98746.25;5093288;28;19947;-41
2023/04/01 04:45:34;;;;;;;;;;;;;;;10.73;68.90;98747.06;5093276;28;19912;-41
2023/04/01 04:47:59;;;;;;;;;;;;;;;11.01;68.19;98745.59;5092700;28;19973;-41
2023/04/01 04:50:25;;;;;;;;;;;;;;;11.09;67.00;98752.44;5092870;28;20481;-41
2023/04/01 04:52:50;;;;;;;;;;;;;;;11.04;67.35;98742.47;5092697;28;19912;-41
2023/04/01 04:55:16;;;;;;;;;;;;;;;10.98;67.20;98746.03;5091715;28;19919;-41
2023/04/01 04:57:41;;;;;;;;;;;;;;;10.86;68.42;98764.66;5092859;28;19912;-41
2023/04/01 05:00:07;;;;;;;;;;;;;;;11.10;68.04;98756.69;5092559;28;19954;-41
2023/04/01 05:02:32;;;;;;;;;;;;;;;11.05;67.89;98756.59;5092580;28;19912;-40
2023/04/01 05:04:58;;;;;;;;;;;;;;;10.96;68.77;98753.44;5092638;28;20018;-41
2023/04/01 05:07:23;;;;;;;;;;;;;;;10.84;68.40;98740.13;5092467;28;19969;-41
2023/04/01 05:09:48;;;;;;;;;;;;;;;10.85;68.18;98739.09;5092502;28;19915;-41
2023/04/01 05:12:14;;;;;;;;;;;;;;;10.96;68.80;98745.47;5092223;28;20423;-41
2023/04/01 05:14:39;;;;;;;;;;;;;;;11.15;68.28;98746.97;5092523;28;19912;-41
2023/04/01 05:17:08;;;;;;;;;;;;;;;11.20;68.33;98740.97;5092589;28;19912;-42
2023/04/01 05:19:33;;;;;;;;;;;;;;;11.15;68.31;98743.50;5092213;28;19923;-41
2023/04/01 05:21:58;;;;;;;;;;;;;;;11.10;67.68;98740.72;5092174;28;19912;-40
2023/04/01 05:24:24;;;;;;;;;;;;;;;11.14;67.88;98740.03;5092140;28;19927;-42
2023/04/01 05:26:49;;;;;;;;;;;;;;;11.21;68.23;98734.59;5092477;28;20019;-41
2023/04/01 05:29:14;;;;;;;;;;;;;;;11.54;66.89;98736.66;5091643;28;19926;-41
2023/04/01 05:31:40;;;;;;;;;;;;;;;10.98;68.92;98735.41;5092243;28;19948;-41
2023/04/01 05:34:05;;;;;;;;;;;;;;;11.34;67.69;98734.34;5092105;28;19991;-40
2023/04/01 05:36:30;;;;;;;;;;;;;;;11.43;66.76;98734.00;5092251;28;19912;-40
2023/04/01 05:38:56;;;;;;;;;;;;;;;11.30;67.57;98732.41;5091838;28;20279;-41
2023/04/01 05:41:21;;;;;;;;;;;;;;;11.51;67.25;98721.13;5091965;28;19922;-41
2023/04/01 05:43:46;;;;;;;;;;;;;;;11.47;67.63;98703.19;5092038;28;19912;-41
2023/04/01 05:46:12;;;;;;;;;;;;;;;11.19;67.96;98696.72;5091856;28;20316;-41
2023/04/01 05:48:37;;;;;;;;;;;;;;;11.16;68.46;98699.88;5091126;28;19920;-41
2023/04/01 05:51:03;;;;;;;;;;;;;;;10.84;70.18;98696.75;5091237;28;19939;-42
2023/04/01 05:53:28;;;;;;;;;;;;;;;11.12;69.40;98682.75;5091028;28;20343;-41
2023/04/01 05:55:54;;;;;;;;;;;;;;;11.24;68.22;98675.53;5091140;28;19916;-41
2023/04/01 05:58:19;;;;;;;;;;;;;;;10.88;69.67;98673.94;5090919;28;19912;-41
2023/04/01 06:00:44;;;;;;;;;;;;;;;11.16;68.70;98678.56;5091273;28;19919;-41
2023/04/01 06:03:10;;;;;;;;;;;;;;;11.03;69.19;98665.50;5091177;28;19957;-41
2023/04/01 06:05:40;;;;;;;;;;;;;;;10.92;68.77;98664.47;5090137;28;20310;-41
2023/04/01 06:08:09;;;;;;;;;;;;;;;11.26;68.04;98678.78;5090667;28;19912;-41
2023/04/01 06:10:41;;;;;;;;;;;;;;;10.95;69.35;98667.47;5090533;28;19968;-41
2023/04/01 06:13:12;;;;;;;;;;;;;;;11.01;69.63;98679.03;5090883;28;19912;-41
2023/04/01 06:15:37;;;;;;;;;;;;;;;11.22;69.50;98659.00;5090871;28;20375;-41
2023/04/01 06:18:18;;;;;;;;;;;;;;;11.00;68.74;98644.66;5090709;28;19926;-40
2023/04/01 06:21:03;;;;;;;;;;;;;;;10.95;69.87;98637.38;5090863;28;20006;-41
2023/04/01 06:23:29;;;;;;;;;;;;;;;10.91;70.18;98641.56;5069117;28;20277;-42
2023/04/01 06:26:01;;;;;;;;;;;;;;;11.08;69.72;98646.97;5090579;28;19942;-40
2023/04/01 06:28:59;;;;;;;;;;;;;;;10.72;70.76;98640.88;5090635;28;19920;-40
2023/04/01 06:31:31;;;;;;;;;;;;;;;11.08;69.76;98645.13;5067253;28;20014;-41
2023/04/01 06:34:07;;;;;;;;;;;;;;;11.48;68.49;98654.19;5090497;28;19916;-41
2023/04/01 06:36:52;;;;;;;;;;;;;;;11.34;68.78;98657.09;5090127;28;19920;-42
2023/04/01 06:39:36;;;;;;;;;;;;;;;11.17;69.91;98650.09;5090164;28;19912;-42
2023/04/01 06:42:10;;;;;;;;;;;;;;;11.22;69.57;98651.00;5088601;28;19935;-41
2023/04/01 06:44:35;;;;;;;;;;;;;;;11.48;68.34;98643.53;5088272;28;19912;-43
2023/04/01 06:47:19;;;;;;;;;;;;;;;11.72;68.02;98650.41;5087949;28;20069;-41
2023/04/01 06:50:00;;;;;;;;;;;;;;;11.67;68.14;98650.31;5088098;28;20061;-42
2023/04/01 06:52:30;;;;;;;;;;;;;;;11.28;70.34;98642.06;5089151;28;20435;-42
2023/04/01 06:55:13;;;;;;;;;;;;;;;11.28;69.88;98644.75;5089174;28;19923;-42
2023/04/01 06:57:42;;;;;;;;;;;;;;;11.51;70.49;98651.06;5090031;28;20222;-42
2023/04/01 07:00:26;;;;;;;;;;;;;;;11.49;70.34;98653.16;5089959;28;19959;-42
2023/04/01 07:03:01;;;;;;;;;;;;;;;11.79;69.85;98649.47;5089749;28;19912;-41
2023/04/01 07:05:30;;;;;;;;;;;;;;;12.02;68.43;98657.38;5089662;28;19962;-41
2023/04/01 07:07:57;;;;;;;;;;;;;;;11.89;68.44;98658.47;5089929;28;19965;-42
2023/04/01 07:10:33;;;;;;;;;;;;;;;11.63;69.61;98651.03;5090419;28;19928;-42
2023/04/01 07:13:02;;;;;;;;;;;;;;;11.59;70.42;98636.56;5090467;28;19920;-42
2023/04/01 07:15:30;;;;;;;;;;;;;;;12.01;68.72;98630.97;5090294;28;20004;-41
2023/04/01 07:17:58;;;;;;;;;;;;;;;11.81;69.04;98629.53;5091691;28;19912;-42
2023/04/01 07:20:27;;;;;;;;;;;;;;;11.79;69.21;98631.63;5094025;28;20007;-41
2023/04/01 07:22:56;;;;;;;;;;;;;;;11.81;69.07;98618.06;5094143;28;19931;-42
2023/04/01 07:25:33;;;;;;;;;;;;;;;11.89;69.64;98613.16;5079546;28;19955;-42
2023/04/01 07:28:06;;;;;;;;;;;;;;;11.92;69.70;98611.91;5074241;28;19986;-41
2023/04/01 07:30:43;;;;;;;;;;;;;;;11.73;70.16;98603.25;5073657;28;19917;-41
2023/04/01 07:33:15;;;;;;;;;;;;;;;12.12;69.90;98598.88;5073736;28;19916;-42
2023/04/01 07:35:43;;;;;;;;;;;;;;;12.37;68.41;98605.69;5073192;28;19969;-41
2023/04/01 07:38:27;;;;;;;;;;;;;;;12.27;69.67;98595.66;5072985;28;19913;-41
2023/04/01 07:40:55;;;;;;;;;;;;;;;12.66;68.16;98605.59;5073243;28;19912;-40
2023/04/01 07:43:32;;;;;;;;;;;;;;;13.55;65.52;98611.84;5073691;28;20034;-41
2023/04/01 07:46:25;;;;;;;;;;;;;;;13.27;65.52;98598.41;5072727;28;19916;-41
2023/04/01 07:49:13;;;;;;;;;;;;;;;13.68;64.29;98598.91;5063159;28;19957;-41
2023/04/01 07:51:43;;;;;;;;;;;;;;;13.88;63.27;98597.50;5072781;28;20300;-42
2023/04/01 07:54:39;;;;;;;;;;;;;;;14.44;60.97;98597.16;5072900;28;19919;-41
2023/04/01 07:57:07;;;;;;;;;;;;;;;14.75;60.38;98600.88;5053434;28;19913;-41
2023/04/01 07:59:41;;;;;;;;;;;;;;;14.42;60.22;98608.13;5071952;28;20006;-41
2023/04/01 08:02:45;;;;;;;;;;;;;;;14.55;60.12;98604.22;5072745;28;19998;-41
2023/04/01 08:05:22;;;;;;;;;;;;;;;14.06;61.56;98597.13;5050058;28;19923;-42
2023/04/01 08:07:58;;;;;;;;;;;;;;;14.33;61.36;98587.44;5050193;28;20429;-40
2023/04/01 08:10:38;;;;;;;;;;;;;;;15.20;58.91;98586.13;5063723;28;19921;-41
2023/04/01 08:13:12;;;;;;;;;;;;;;;14.91;59.67;98583.03;5072561;28;19924;-41
2023/04/01 08:15:41;;;;;;;;;;;;;;;14.45;60.94;98575.50;5072518;28;20348;-40
2023/04/01 08:18:30;;;;;;;;;;;;;;;14.75;59.10;98573.31;5072221;28;20367;-42
2023/04/01 08:21:03;;;;;;;;;;;;;;;14.55;60.28;98564.06;5069129;28;19912;-42
2023/04/01 08:23:44;;;;;;;;;;;;;;;14.98;59.01;98554.16;5071722;28;20412;-41
2023/04/01 08:26:22;;;;;;;;;;;;;;;15.11;58.12;98554.72;5072489;28;19916;-41
2023/04/01 08:29:10;;;;;;;;;;;;;;;15.09;57.97;98560.34;5071930;28;19916;-42
2023/04/01 08:31:35;;;;;;;;;;;;;;;15.77;56.31;98552.25;5061420;28;19970;-42
2023/04/01 08:34:04;;;;;;;;;;;;;;;15.55;57.06;98555.13;5072335;28;19916;-41
2023/04/01 08:36:35;;;;;;;;;;;;;;;15.36;57.62;98540.59;5072267;28;19912;-41
2023/04/01 08:39:15;;;;;;;;;;;;;;;15.66;56.50;98536.41;5071929;28;20031;-42
2023/04/01 08:41:59;;;;;;;;;;;;;;;15.68;56.59;98526.22;5071329;28;19913;-42
2023/04/01 08:44:36;;;;;;;;;;;;;;;15.67;57.08;98538.00;5071698;28;20007;-41
2023/04/01 08:47:20;;;;;;;;;;;;;;;16.18;55.44;98524.63;5079958;28;19912;-41
2023/04/01 08:49:48;;;;;;;;;;;;;;;16.64;54.17;98519.22;5091748;28;19916;-42
2023/04/01 08:52:34;;;;;;;;;;;;;;;16.38;55.39;98519.25;5091848;28;19923;-41
2023/04/01 08:55:02;;;;;;;;;;;;;;;16.52;55.01;98507.94;5091787;28;19912;-42
2023/04/01 08:57:47;;;;;;;;;;;;;;;16.71;54.04;98505.47;5091385;28;19912;-41
2023/04/01 09:00:35;;;;;;;;;;;;;;;16.64;54.35;98508.47;5091464;28;19977;-42
2023/04/01 09:03:06;;;;;;;;;;;;;;;17.04;53.18;98501.34;5088131;28;19912;-41
2023/04/01 09:05:37;;;;;;;;;;;;;;;17.25;52.55;98495.84;5091164;28;20339;-43
2023/04/01 09:08:17;;;;;;;;;;;;;;;17.33;51.96;98488.03;5091229;28;19912;-42
2023/04/01 09:10:57;;;;;;;;;;;;;;;16.83;53.00;98481.00;5091351;28;19924;-43
2023/04/01 09:13:36;;;;;;;;;;;;;;;16.87;53.20;98472.13;5091358;28;19916;-42
2023/04/01 09:16:05;;;;;;;;;;;;;;;16.96;52.68;98475.03;5091238;28;19919;-41
2023/04/01 09:18:48;;;;;;;;;;;;;;;16.94;52.45;98467.25;5091151;28;20014;-44
2023/04/01 09:21:19;;;;;;;;;;;;;;;17.25;51.61;98456.34;5091092;28;19916;-41
2023/04/01 09:23:58;;;;;;;;;;;;;;;17.02;52.04;98441.72;5090925;28;19921;-41
2023/04/01 09:26:39;;;;;;;;;;;;;;;16.81;52.63;98438.25;5090939;28;19919;-42
2023/04/01 09:29:19;;;;;;;;;;;;;;;16.98;52.70;98435.25;5091169;28;19916;-41
2023/04/01 09:32:12;;;;;;;;;;;;;;;17.35;51.60;98431.28;5091073;28;19920;-42
2023/04/01 09:34:56;;;;;;;;;;;;;;;17.39;51.37;98421.56;5090975;28;20443;-43
2023/04/01 09:37:21;;;;;;;;;;;;;;;16.97;52.33;98423.72;5091455;28;19935;-41
2023/04/01 09:39:52;;;;;;;;;;;;;;;17.47;51.70;98412.91;5090204;28;20388;-41
2023/04/01 09:42:30;;;;;;;;;;;;;;;17.96;50.33;98411.16;5091233;28;19947;-42
2023/04/01 09:45:21;;;;;;;;;;;;;;;17.74;50.77;98412.44;5091161;28;20244;-41
2023/04/01 09:48:02;;;;;;;;;;;;;;;17.52;51.25;98415.56;5089394;28;20332;-42
2023/04/01 09:50:36;;;;;;;;;;;;;;;18.22;49.72;98429.75;5090495;28;19916;-42
2023/04/01 09:53:22;;;;;;;;;;;;;;;18.57;49.00;98423.16;5091002;28;19912;-43
2023/04/01 09:56:07;;;;;;;;;;;;;;;18.85;47.73;98420.66;5086415;28;19919;-42
2023/04/01 09:58:38;;;;;;;;;;;;;;;18.04;49.76;98410.53;5079198;28;20203;-41
2023/04/01 10:01:10;;;;;;;;;;;;;;;18.13;49.52;98395.38;5090250;28;20003;-41
2023/04/01 10:03:41;;;;;;;;;;;;;;;18.79;48.29;98387.59;5089972;28;19934;-42
2023/04/01 10:06:07;;;;;;;;;;;;;;;19.12;48.48;98380.41;5090580;28;19912;-41
2023/04/01 10:08:38;;;;;;;;;;;;;;;19.62;46.93;98379.09;5090248;28;19912;-41
2023/04/01 10:11:22;;;;;;;;;;;;;;;18.92;47.25;98375.31;5090436;28;20299;-42
2023/04/01 10:13:53;;;;;;;;;;;;;;;18.89;47.94;98359.72;5090466;28;19979;-41
2023/04/01 10:16:37;;;;;;;;;;;;;;;19.31;47.32;98350.72;5090430;28;19916;-42
2023/04/01 10:19:20;;;;;;;;;;;;;;;19.27;47.51;98346.22;5090366;28;20023;-42
2023/04/01 10:22:04;;;;;;;;;;;;;;;19.32;47.03;98349.63;5090199;28;20030;-41
2023/04/01 10:24:43;;;;;;;;;;;;;;;19.51;46.66;98344.19;5090011;28;20077;-41
2023/04/01 10:27:17;;;;;;;;;;;;;;;19.19;46.63;98331.50;5090247;28;20375;-42
2023/04/01 10:29:51;;;;;;;;;;;;;;;19.62;46.30;98319.72;5090019;28;19922;-40
2023/04/01 10:32:16;;;;;;;;;;;;;;;19.47;46.67;98315.38;5089977;28;19914;-40
2023/04/01 10:34:42;;;;;;;;;;;;;;;19.41;47.09;98321.97;5089993;28;19919;-41
2023/04/01 10:37:32;;;;;;;;;;;;;;;19.56;47.10;98319.00;5089800;28;19912;-41
2023/04/01 10:40:00;;;;;;;;;;;;;;;19.50;47.00;98318.31;5079371;28;19912;-40
2023/04/01 10:42:40;;;;;;;;;;;;;;;20.11;46.29;98312.88;5089712;28;19969;-41
2023/04/01 10:45:05;;;;;;;;;;;;;;;20.61;44.53;98296.72;5089854;28;19912;-41
2023/04/01 10:47:49;;;;;;;;;;;;;;;20.58;44.10;98275.69;5089707;28;19968;-41
2023/04/01 10:50:25;;;;;;;;;;;;;;;21.12;43.04;98264.19;5089608;28;19916;-41
2023/04/01 10:52:53;;;;;;;;;;;;;;;21.15;43.01;98250.84;5092889;28;19919;-40
2023/04/01 10:55:31;;;;;;;;;;;;;;;20.79;43.19;98254.44;5094006;28;19916;-40
2023/04/01 10:58:19;;;;;;;;;;;;;;;20.61;43.89;98245.38;5094058;28;20008;-41
2023/04/01 11:01:00;;;;;;;;;;;;;;;20.34;44.58;98242.75;5093762;28;19912;-41
2023/04/01 11:03:44;;;;;;;;;;;;;;;20.39;44.60;98234.50;5093897;28;19959;-41
2023/04/01 11:06:15;;;;;;;;;;;;;;;19.75;45.69;98226.44;5093803;28;19912;-41
2023/04/01 11:09:04;;;;;;;;;;;;;;;20.07;45.38;98215.47;5094112;28;19998;-40
2023/04/01 11:11:47;;;;;;;;;;;;;;;20.26;45.30;98214.56;5083191;28;19919;-41
2023/04/01 11:14:16;;;;;;;;;;;;;;;21.14;43.85;98227.59;5093314;28;19912;-41
2023/04/01 11:16:50;;;;;;;;;;;;;;;21.50;42.76;98231.31;5093359;28;19912;-41
2023/04/01 11:19:33;;;;;;;;;;;;;;;21.50;42.89;98217.78;5093492;28;20416;-41
2023/04/01 11:22:14;;;;;;;;;;;;;;;22.05;41.73;98203.78;5093126;28;20065;-41
2023/04/01 11:25:02;;;;;;;;;;;;;;;22.43;40.65;98197.78;5093439;28;19924;-40
2023/04/01 11:27:30;;;;;;;;;;;;;;;22.47;40.16;98197.94;5093532;28;19923;-41
2023/04/01 11:30:14;;;;;;;;;;;;;;;22.76;39.97;98194.53;5093397;28;19927;-41
2023/04/01 11:32:49;;;;;;;;;;;;;;;22.18;40.28;98194.69;5093536;28;20418;-40
2023/04/01 11:35:20;;;;;;;;;;;;;;;21.97;41.31;98202.66;5093185;28;20406;-41
2023/04/01 11:38:14;;;;;;;;;;;;;;;20.43;44.53;98187.69;5093435;28;19912;-42
2023/04/01 11:40:58;;;;;;;;;;;;;;;21.56;42.01;98175.94;5093083;28;19923;-41
2023/04/01 11:43:46;;;;;;;;;;;;;;;22.11;41.81;98166.50;5093118;28;20349;-41
2023/04/01 11:46:15;;;;;;;;;;;;;;;22.37;41.40;98167.31;5093072;28;19912;-41
2023/04/01 11:48:50;;;;;;;;;;;;;;;23.21;39.60;98156.19;5092945;28;19974;-41
2023/04/01 11:51:24;;;;;;;;;;;;;;;23.73;38.51;98158.63;5092876;28;19912;-41
2023/04/01 11:54:19;;;;;;;;;;;;;;;23.81;38.68;98155.06;5092953;28;19981;-41
2023/04/01 11:56:50;;;;;;;;;;;;;;;24.38;37.26;98150.19;5088322;28;20015;-41
2023/04/01 11:59:31;;;;;;;;;;;;;;;24.62;36.76;98160.38;5092869;28;20338;-41
2023/04/01 12:02:15;;;;;;;;;;;;;;;23.87;37.96;98158.38;5092993;28;19995;-41
2023/04/01 12:04:43;;;;;;;;;;;;;;;23.60;38.38;98149.56;5092071;28;19931;-40
2023/04/01 12:07:15;;;;;;;;;;;;;;;24.15;37.28;98134.22;5092631;28;20026;-42
2023/04/01 12:09:40;;;;;;;;;;;;;;;23.65;38.13;98147.81;5092832;28;19927;-41
2023/04/01 12:12:25;;;;;;;;;;;;;;;24.24;37.08;98144.22;5092350;28;19912;-40
2023/04/01 12:15:13;;;;;;;;;;;;;;;23.99;37.44;98133.25;5092368;28;19923;-41
2023/04/01 12:17:57;;;;;;;;;;;;;;;23.64;38.22;98136.13;5092358;28;19912;-40
2023/04/01 12:20:23;;;;;;;;;;;;;;;23.43;38.18;98130.69;5092214;28;19916;-40
2023/04/01 12:22:53;;;;;;;;;;;;;;;23.31;38.69;98098.81;5092287;28;19916;-41
2023/04/01 12:25:18;;;;;;;;;;;;;;;23.64;38.03;98094.63;5092487;28;20002;-40
2023/04/01 12:27:44;;;;;;;;;;;;;;;23.28;38.59;98087.81;5092023;28;20068;-40
2023/04/01 12:30:27;;;;;;;;;;;;;;;23.10;39.12;98087.91;5092164;28;19923;-40
2023/04/01 12:32:59;;;;;;;;;;;;;;;22.94;39.37;98076.78;5092436;28;19970;-41
2023/04/01 12:35:24;;;;;;;;;;;;;;;23.27;38.71;98078.09;5092237;28;20307;-39
2023/04/01 12:38:08;;;;;;;;;;;;;;;22.96;39.58;98069.13;5091845;28;20402;-42
2023/04/01 12:40:33;;;;;;;;;;;;;;;23.25;39.40;98069.47;5092051;28;19919;-40
2023/04/01 12:43:14;;;;;;;;;;;;;;;23.74;38.51;98064.34;5092103;28;19912;-41
2023/04/01 12:45:51;;;;;;;;;;;;;;;23.80;38.59;98061.16;5091766;28;19912;-41
2023/04/01 12:48:17;;;;;;;;;;;;;;;23.93;38.51;98053.88;5092018;28;20000;-41
2023/04/01 12:50:42;;;;;;;;;;;;;;;23.78;38.80;98057.97;5092540;28;19934;-41
2023/04/01 12:53:16;;;;;;;;;;;;;;;23.67;39.03;98055.97;5092659;28;19912;-40
2023/04/01 12:55:42;;;;;;;;;;;;;;;24.01;38.67;98035.91;5091779;28;20300;-40
2023/04/01 12:58:26;;;;;;;;;;;;;;;24.19;38.20;98036.53;5091565;28;19920;-41
2023/04/01 13:01:03;;;;;;;;;;;;;;;23.31;39.86;98030.97;5091779;28;19977;-41
2023/04/01 13:03:50;;;;;;;;;;;;;;;23.49;39.80;98045.22;5091839;28;19920;-41
2023/04/01 13:06:48;;;;;;;;;;;;;;;23.03;40.53;98041.50;5091666;28;19912;-40
2023/04/01 13:09:48;;;;;;;;;;;;;;;22.78;40.73;98038.53;5078854;28;19917;-40
2023/04/01 13:12:16;;;;;;;;;;;;;;;22.68;41.31;98035.41;5068583;28;19990;-40